sensor_id;sensor_type;location;lat;lon;timestamp;P1;durP1;ratioP1;P2;durP2;ratioP2
31978;SDS011;18502;43.574;1.276;2023-08-24T00:00:16;8.55;;;4.53;;
31978;SDS011;18502;43.574;1.276;2023-08-24T00:02:43;11.07;;;4.13;;
31978;SDS011;18502;43.574;1.276;2023-08-24T00:05:08;7.95;;;4.43;;
31978;SDS011;18502;43.574;1.276;2023-08-24T00:07:34;7.55;;;4.07;;
31978;SDS011;18502;43.574;1.276;2023-08-24T00:10:00;9.65;;;4.00;;
31978;SDS011;18502;43.574;1.276;2023-08-24T00:12:26;8.50;;;3.65;;
31978;SDS011;18502;43.574;1.276;2023-08-24T00:14:51;6.68;;;3.90;;
31978;SDS011;18502;43.574;1.276;2023-08-24T00:17:17;9.32;;;4.70;;
31978;SDS011;18502;43.574;1.276;2023-08-24T00:19:43;8.10;;;3.72;;
31978;SDS011;18502;43.574;1.276;2023-08-24T00:22:08;6.43;;;4.30;;
31978;SDS011;18502;43.574;1.276;2023-08-24T00:24:34;7.20;;;3.97;;
31978;SDS011;18502;43.574;1.276;2023-08-24T00:27:00;12.57;;;4.18;;
31978;SDS011;18502;43.574;1.276;2023-08-24T00:29:25;11.55;;;4.35;;
31978;SDS011;18502;43.574;1.276;2023-08-24T00:31:51;7.03;;;3.63;;
31978;SDS011;18502;43.574;1.276;2023-08-24T00:34:17;8.40;;;3.70;;
31978;SDS011;18502;43.574;1.276;2023-08-24T00:36:42;5.20;;;3.80;;
31978;SDS011;18502;43.574;1.276;2023-08-24T00:39:08;7.32;;;4.28;;
31978;SDS011;18502;43.574;1.276;2023-08-24T00:41:33;7.05;;;4.28;;
31978;SDS011;18502;43.574;1.276;2023-08-24T00:43:59;6.65;;;3.40;;
31978;SDS011;18502;43.574;1.276;2023-08-24T00:46:25;7.63;;;4.18;;
31978;SDS011;18502;43.574;1.276;2023-08-24T00:48:53;8.52;;;4.10;;
31978;SDS011;18502;43.574;1.276;2023-08-24T00:51:22;5.47;;;3.55;;
31978;SDS011;18502;43.574;1.276;2023-08-24T00:53:48;8.80;;;4.65;;
31978;SDS011;18502;43.574;1.276;2023-08-24T00:56:15;6.80;;;3.50;;
31978;SDS011;18502;43.574;1.276;2023-08-24T00:58:40;5.95;;;3.67;;
31978;SDS011;18502;43.574;1.276;2023-08-24T01:01:07;10.52;;;4.22;;
31978;SDS011;18502;43.574;1.276;2023-08-24T01:03:33;4.85;;;4.00;;
31978;SDS011;18502;43.574;1.276;2023-08-24T01:05:59;6.88;;;4.13;;
31978;SDS011;18502;43.574;1.276;2023-08-24T01:08:25;7.38;;;3.95;;
31978;SDS011;18502;43.574;1.276;2023-08-24T01:10:57;12.80;;;4.30;;
31978;SDS011;18502;43.574;1.276;2023-08-24T01:13:45;7.05;;;4.00;;
31978;SDS011;18502;43.574;1.276;2023-08-24T01:16:18;6.28;;;4.25;;
31978;SDS011;18502;43.574;1.276;2023-08-24T01:18:51;11.20;;;4.38;;
31978;SDS011;18502;43.574;1.276;2023-08-24T01:21:25;7.35;;;4.35;;
31978;SDS011;18502;43.574;1.276;2023-08-24T01:26:39;7.32;;;4.25;;
31978;SDS011;18502;43.574;1.276;2023-08-24T01:29:06;7.90;;;4.32;;
31978;SDS011;18502;43.574;1.276;2023-08-24T01:31:32;11.40;;;4.38;;
31978;SDS011;18502;43.574;1.276;2023-08-24T01:33:58;5.18;;;3.60;;
31978;SDS011;18502;43.574;1.276;2023-08-24T01:36:25;6.70;;;4.32;;
31978;SDS011;18502;43.574;1.276;2023-08-24T01:38:56;7.25;;;4.28;;
31978;SDS011;18502;43.574;1.276;2023-08-24T01:41:31;8.05;;;4.57;;
31978;SDS011;18502;43.574;1.276;2023-08-24T01:44:03;11.05;;;4.53;;
31978;SDS011;18502;43.574;1.276;2023-08-24T01:46:31;7.53;;;4.45;;
31978;SDS011;18502;43.574;1.276;2023-08-24T01:48:58;5.72;;;4.07;;
31978;SDS011;18502;43.574;1.276;2023-08-24T01:51:25;11.23;;;4.28;;
31978;SDS011;18502;43.574;1.276;2023-08-24T01:53:51;10.15;;;4.13;;
31978;SDS011;18502;43.574;1.276;2023-08-24T01:56:18;8.65;;;4.32;;
31978;SDS011;18502;43.574;1.276;2023-08-24T01:58:43;6.28;;;5.03;;
31978;SDS011;18502;43.574;1.276;2023-08-24T02:01:09;16.85;;;5.47;;
31978;SDS011;18502;43.574;1.276;2023-08-24T02:03:38;10.32;;;4.90;;
31978;SDS011;18502;43.574;1.276;2023-08-24T02:06:07;10.02;;;4.57;;
31978;SDS011;18502;43.574;1.276;2023-08-24T02:08:33;9.30;;;4.70;;
31978;SDS011;18502;43.574;1.276;2023-08-24T02:10:59;9.30;;;4.05;;
31978;SDS011;18502;43.574;1.276;2023-08-24T02:13:24;8.45;;;4.68;;
31978;SDS011;18502;43.574;1.276;2023-08-24T02:15:50;5.40;;;4.78;;
31978;SDS011;18502;43.574;1.276;2023-08-24T02:18:16;6.00;;;4.47;;
31978;SDS011;18502;43.574;1.276;2023-08-24T02:20:41;12.52;;;4.85;;
31978;SDS011;18502;43.574;1.276;2023-08-24T02:23:07;8.07;;;4.82;;
31978;SDS011;18502;43.574;1.276;2023-08-24T02:25:33;7.45;;;4.65;;
31978;SDS011;18502;43.574;1.276;2023-08-24T02:27:58;6.72;;;5.13;;
31978;SDS011;18502;43.574;1.276;2023-08-24T02:30:24;9.13;;;4.80;;
31978;SDS011;18502;43.574;1.276;2023-08-24T02:32:51;9.82;;;4.65;;
31978;SDS011;18502;43.574;1.276;2023-08-24T02:35:16;9.90;;;4.82;;
31978;SDS011;18502;43.574;1.276;2023-08-24T02:37:43;10.13;;;4.78;;
31978;SDS011;18502;43.574;1.276;2023-08-24T02:40:08;6.28;;;5.15;;
31978;SDS011;18502;43.574;1.276;2023-08-24T02:42:34;8.68;;;4.80;;
31978;SDS011;18502;43.574;1.276;2023-08-24T02:45:00;8.98;;;4.93;;
31978;SDS011;18502;43.574;1.276;2023-08-24T02:47:26;7.00;;;5.00;;
31978;SDS011;18502;43.574;1.276;2023-08-24T02:49:52;10.32;;;5.03;;
31978;SDS011;18502;43.574;1.276;2023-08-24T02:52:17;6.10;;;4.60;;
31978;SDS011;18502;43.574;1.276;2023-08-24T02:54:43;9.18;;;4.95;;
31978;SDS011;18502;43.574;1.276;2023-08-24T02:57:09;7.05;;;5.13;;
31978;SDS011;18502;43.574;1.276;2023-08-24T02:59:34;8.32;;;4.78;;
31978;SDS011;18502;43.574;1.276;2023-08-24T03:02:00;11.65;;;4.95;;
31978;SDS011;18502;43.574;1.276;2023-08-24T03:04:26;7.78;;;4.88;;
31978;SDS011;18502;43.574;1.276;2023-08-24T03:06:52;9.35;;;4.57;;
31978;SDS011;18502;43.574;1.276;2023-08-24T03:09:17;9.68;;;5.00;;
31978;SDS011;18502;43.574;1.276;2023-08-24T03:11:43;7.53;;;4.93;;
31978;SDS011;18502;43.574;1.276;2023-08-24T03:14:09;8.88;;;4.88;;
31978;SDS011;18502;43.574;1.276;2023-08-24T03:16:35;10.00;;;4.97;;
31978;SDS011;18502;43.574;1.276;2023-08-24T03:19:02;8.38;;;4.78;;
31978;SDS011;18502;43.574;1.276;2023-08-24T03:21:28;8.07;;;4.70;;
31978;SDS011;18502;43.574;1.276;2023-08-24T03:23:55;6.85;;;4.70;;
31978;SDS011;18502;43.574;1.276;2023-08-24T03:26:21;7.65;;;4.68;;
31978;SDS011;18502;43.574;1.276;2023-08-24T03:28:48;9.57;;;4.57;;
31978;SDS011;18502;43.574;1.276;2023-08-24T03:31:14;10.07;;;5.25;;
31978;SDS011;18502;43.574;1.276;2023-08-24T03:33:40;7.63;;;4.50;;
31978;SDS011;18502;43.574;1.276;2023-08-24T03:36:05;8.02;;;4.78;;
31978;SDS011;18502;43.574;1.276;2023-08-24T03:38:31;12.93;;;5.05;;
31978;SDS011;18502;43.574;1.276;2023-08-24T03:41:01;8.13;;;4.93;;
31978;SDS011;18502;43.574;1.276;2023-08-24T03:43:28;8.45;;;4.45;;
31978;SDS011;18502;43.574;1.276;2023-08-24T03:45:56;10.48;;;5.50;;
31978;SDS011;18502;43.574;1.276;2023-08-24T03:48:22;12.18;;;4.93;;
31978;SDS011;18502;43.574;1.276;2023-08-24T03:50:47;9.95;;;5.50;;
31978;SDS011;18502;43.574;1.276;2023-08-24T03:53:13;7.22;;;4.50;;
31978;SDS011;18502;43.574;1.276;2023-08-24T03:55:39;7.03;;;4.90;;
31978;SDS011;18502;43.574;1.276;2023-08-24T03:58:04;6.72;;;5.07;;
31978;SDS011;18502;43.574;1.276;2023-08-24T04:00:30;9.23;;;5.38;;
31978;SDS011;18502;43.574;1.276;2023-08-24T04:02:56;9.48;;;5.07;;
31978;SDS011;18502;43.574;1.276;2023-08-24T04:05:21;7.78;;;4.80;;
31978;SDS011;18502;43.574;1.276;2023-08-24T04:07:47;9.07;;;4.85;;
31978;SDS011;18502;43.574;1.276;2023-08-24T04:10:13;8.48;;;5.18;;
31978;SDS011;18502;43.574;1.276;2023-08-24T04:12:38;8.68;;;5.28;;
31978;SDS011;18502;43.574;1.276;2023-08-24T04:15:04;9.13;;;4.78;;
31978;SDS011;18502;43.574;1.276;2023-08-24T04:17:30;9.27;;;5.80;;
31978;SDS011;18502;43.574;1.276;2023-08-24T04:19:56;7.40;;;5.03;;
31978;SDS011;18502;43.574;1.276;2023-08-24T04:22:21;9.82;;;5.32;;
31978;SDS011;18502;43.574;1.276;2023-08-24T04:24:47;11.40;;;5.68;;
31978;SDS011;18502;43.574;1.276;2023-08-24T04:27:13;7.60;;;5.20;;
31978;SDS011;18502;43.574;1.276;2023-08-24T04:29:39;7.13;;;5.07;;
31978;SDS011;18502;43.574;1.276;2023-08-24T04:32:05;8.90;;;5.13;;
31978;SDS011;18502;43.574;1.276;2023-08-24T04:34:31;21.70;;;5.57;;
31978;SDS011;18502;43.574;1.276;2023-08-24T04:36:57;9.25;;;4.97;;
31978;SDS011;18502;43.574;1.276;2023-08-24T04:39:22;8.40;;;5.07;;
31978;SDS011;18502;43.574;1.276;2023-08-24T04:41:49;9.50;;;5.43;;
31978;SDS011;18502;43.574;1.276;2023-08-24T04:44:15;7.80;;;4.70;;
31978;SDS011;18502;43.574;1.276;2023-08-24T04:46:41;8.32;;;5.03;;
31978;SDS011;18502;43.574;1.276;2023-08-24T04:49:06;10.85;;;5.55;;
31978;SDS011;18502;43.574;1.276;2023-08-24T04:51:32;7.72;;;5.10;;
31978;SDS011;18502;43.574;1.276;2023-08-24T04:53:58;8.07;;;5.35;;
31978;SDS011;18502;43.574;1.276;2023-08-24T04:56:23;12.50;;;5.03;;
31978;SDS011;18502;43.574;1.276;2023-08-24T04:58:55;8.82;;;5.93;;
31978;SDS011;18502;43.574;1.276;2023-08-24T05:01:22;7.88;;;5.60;;
31978;SDS011;18502;43.574;1.276;2023-08-24T05:03:50;7.07;;;5.60;;
31978;SDS011;18502;43.574;1.276;2023-08-24T05:06:16;7.25;;;5.45;;
31978;SDS011;18502;43.574;1.276;2023-08-24T05:08:42;9.32;;;5.50;;
31978;SDS011;18502;43.574;1.276;2023-08-24T05:11:14;8.70;;;5.45;;
31978;SDS011;18502;43.574;1.276;2023-08-24T05:13:42;12.90;;;5.45;;
31978;SDS011;18502;43.574;1.276;2023-08-24T05:16:09;13.57;;;5.40;;
31978;SDS011;18502;43.574;1.276;2023-08-24T05:18:35;10.13;;;5.40;;
31978;SDS011;18502;43.574;1.276;2023-08-24T05:21:02;10.95;;;5.75;;
31978;SDS011;18502;43.574;1.276;2023-08-24T05:23:28;12.23;;;5.82;;
31978;SDS011;18502;43.574;1.276;2023-08-24T05:25:56;9.55;;;5.45;;
31978;SDS011;18502;43.574;1.276;2023-08-24T05:28:22;11.68;;;5.82;;
31978;SDS011;18502;43.574;1.276;2023-08-24T05:30:50;7.25;;;5.15;;
31978;SDS011;18502;43.574;1.276;2023-08-24T05:33:19;7.57;;;5.60;;
31978;SDS011;18502;43.574;1.276;2023-08-24T05:35:46;12.55;;;5.60;;
31978;SDS011;18502;43.574;1.276;2023-08-24T05:38:12;10.02;;;4.90;;
31978;SDS011;18502;43.574;1.276;2023-08-24T05:40:39;8.77;;;5.57;;
31978;SDS011;18502;43.574;1.276;2023-08-24T05:43:06;10.15;;;5.45;;
31978;SDS011;18502;43.574;1.276;2023-08-24T05:45:32;10.35;;;5.50;;
31978;SDS011;18502;43.574;1.276;2023-08-24T05:47:57;12.27;;;5.60;;
31978;SDS011;18502;43.574;1.276;2023-08-24T05:50:23;7.53;;;4.93;;
31978;SDS011;18502;43.574;1.276;2023-08-24T05:52:49;8.07;;;5.45;;
31978;SDS011;18502;43.574;1.276;2023-08-24T05:55:15;10.57;;;5.13;;
31978;SDS011;18502;43.574;1.276;2023-08-24T05:57:41;11.45;;;5.22;;
31978;SDS011;18502;43.574;1.276;2023-08-24T06:00:06;9.38;;;4.90;;
31978;SDS011;18502;43.574;1.276;2023-08-24T06:02:36;7.57;;;4.82;;
31978;SDS011;18502;43.574;1.276;2023-08-24T06:05:02;8.45;;;4.85;;
31978;SDS011;18502;43.574;1.276;2023-08-24T06:07:28;7.38;;;5.00;;
31978;SDS011;18502;43.574;1.276;2023-08-24T06:09:55;13.15;;;5.82;;
31978;SDS011;18502;43.574;1.276;2023-08-24T06:12:21;8.35;;;5.07;;
31978;SDS011;18502;43.574;1.276;2023-08-24T06:14:47;12.95;;;5.43;;
31978;SDS011;18502;43.574;1.276;2023-08-24T06:17:13;10.05;;;5.20;;
31978;SDS011;18502;43.574;1.276;2023-08-24T06:19:38;15.77;;;6.00;;
31978;SDS011;18502;43.574;1.276;2023-08-24T06:22:04;8.98;;;5.35;;
31978;SDS011;18502;43.574;1.276;2023-08-24T06:24:30;17.63;;;7.80;;
31978;SDS011;18502;43.574;1.276;2023-08-24T06:26:56;14.35;;;7.53;;
31978;SDS011;18502;43.574;1.276;2023-08-24T06:29:21;12.30;;;5.97;;
31978;SDS011;18502;43.574;1.276;2023-08-24T06:31:47;9.65;;;4.97;;
31978;SDS011;18502;43.574;1.276;2023-08-24T06:34:13;14.18;;;5.38;;
31978;SDS011;18502;43.574;1.276;2023-08-24T06:36:38;8.32;;;5.30;;
31978;SDS011;18502;43.574;1.276;2023-08-24T06:39:04;12.60;;;5.55;;
31978;SDS011;18502;43.574;1.276;2023-08-24T06:41:34;12.43;;;5.68;;
31978;SDS011;18502;43.574;1.276;2023-08-24T06:44:00;10.63;;;6.10;;
31978;SDS011;18502;43.574;1.276;2023-08-24T06:46:26;11.60;;;5.40;;
31978;SDS011;18502;43.574;1.276;2023-08-24T06:48:52;9.65;;;4.93;;
31978;SDS011;18502;43.574;1.276;2023-08-24T06:51:17;10.63;;;4.75;;
31978;SDS011;18502;43.574;1.276;2023-08-24T06:53:43;7.32;;;4.88;;
31978;SDS011;18502;43.574;1.276;2023-08-24T06:56:09;12.45;;;4.50;;
31978;SDS011;18502;43.574;1.276;2023-08-24T06:58:35;9.68;;;4.95;;
31978;SDS011;18502;43.574;1.276;2023-08-24T07:01:01;9.32;;;5.03;;
31978;SDS011;18502;43.574;1.276;2023-08-24T07:03:30;10.73;;;5.10;;
31978;SDS011;18502;43.574;1.276;2023-08-24T07:05:58;10.18;;;4.88;;
31978;SDS011;18502;43.574;1.276;2023-08-24T07:08:24;9.20;;;4.55;;
31978;SDS011;18502;43.574;1.276;2023-08-24T07:10:50;12.35;;;4.90;;
31978;SDS011;18502;43.574;1.276;2023-08-24T07:13:15;11.57;;;5.00;;
31978;SDS011;18502;43.574;1.276;2023-08-24T07:15:41;11.90;;;5.20;;
31978;SDS011;18502;43.574;1.276;2023-08-24T07:18:08;7.47;;;5.07;;
31978;SDS011;18502;43.574;1.276;2023-08-24T07:20:34;11.60;;;5.25;;
31978;SDS011;18502;43.574;1.276;2023-08-24T07:23:00;9.48;;;4.50;;
31978;SDS011;18502;43.574;1.276;2023-08-24T07:25:26;9.63;;;5.07;;
31978;SDS011;18502;43.574;1.276;2023-08-24T07:27:53;9.57;;;4.65;;
31978;SDS011;18502;43.574;1.276;2023-08-24T07:30:23;9.98;;;5.10;;
31978;SDS011;18502;43.574;1.276;2023-08-24T07:32:49;8.40;;;4.45;;
31978;SDS011;18502;43.574;1.276;2023-08-24T07:35:15;8.88;;;4.53;;
31978;SDS011;18502;43.574;1.276;2023-08-24T07:37:41;14.70;;;5.80;;
31978;SDS011;18502;43.574;1.276;2023-08-24T07:40:07;8.50;;;4.78;;
31978;SDS011;18502;43.574;1.276;2023-08-24T07:42:42;6.60;;;4.60;;
31978;SDS011;18502;43.574;1.276;2023-08-24T07:45:12;5.28;;;4.05;;
31978;SDS011;18502;43.574;1.276;2023-08-24T07:47:42;6.28;;;4.40;;
31978;SDS011;18502;43.574;1.276;2023-08-24T07:50:08;12.65;;;4.93;;
31978;SDS011;18502;43.574;1.276;2023-08-24T07:52:36;9.25;;;4.50;;
31978;SDS011;18502;43.574;1.276;2023-08-24T07:55:03;9.18;;;4.55;;
31978;SDS011;18502;43.574;1.276;2023-08-24T07:57:32;8.07;;;3.78;;
31978;SDS011;18502;43.574;1.276;2023-08-24T07:59:59;9.20;;;4.78;;
31978;SDS011;18502;43.574;1.276;2023-08-24T08:02:25;9.15;;;4.10;;
31978;SDS011;18502;43.574;1.276;2023-08-24T08:04:50;7.50;;;4.57;;
31978;SDS011;18502;43.574;1.276;2023-08-24T08:07:17;9.70;;;4.20;;
31978;SDS011;18502;43.574;1.276;2023-08-24T08:09:42;5.18;;;3.92;;
31978;SDS011;18502;43.574;1.276;2023-08-24T08:12:08;8.63;;;4.47;;
31978;SDS011;18502;43.574;1.276;2023-08-24T08:14:34;12.02;;;4.60;;
31978;SDS011;18502;43.574;1.276;2023-08-24T08:16:59;11.45;;;4.82;;
31978;SDS011;18502;43.574;1.276;2023-08-24T08:19:25;7.25;;;4.03;;
31978;SDS011;18502;43.574;1.276;2023-08-24T08:21:52;9.80;;;4.65;;
31978;SDS011;18502;43.574;1.276;2023-08-24T08:24:18;12.30;;;4.75;;
31978;SDS011;18502;43.574;1.276;2023-08-24T08:26:44;7.13;;;3.85;;
31978;SDS011;18502;43.574;1.276;2023-08-24T08:29:09;9.95;;;4.28;;
31978;SDS011;18502;43.574;1.276;2023-08-24T08:31:35;8.65;;;3.80;;
31978;SDS011;18502;43.574;1.276;2023-08-24T08:34:01;5.45;;;4.18;;
31978;SDS011;18502;43.574;1.276;2023-08-24T08:36:29;7.93;;;4.03;;
31978;SDS011;18502;43.574;1.276;2023-08-24T08:38:57;8.77;;;4.47;;
31978;SDS011;18502;43.574;1.276;2023-08-24T08:41:23;12.13;;;4.10;;
31978;SDS011;18502;43.574;1.276;2023-08-24T08:43:52;11.18;;;4.25;;
31978;SDS011;18502;43.574;1.276;2023-08-24T08:46:18;8.50;;;4.57;;
31978;SDS011;18502;43.574;1.276;2023-08-24T08:48:45;11.73;;;4.13;;
31978;SDS011;18502;43.574;1.276;2023-08-24T08:51:11;7.80;;;3.95;;
31978;SDS011;18502;43.574;1.276;2023-08-24T08:53:39;6.03;;;3.88;;
31978;SDS011;18502;43.574;1.276;2023-08-24T08:56:05;6.93;;;4.32;;
31978;SDS011;18502;43.574;1.276;2023-08-24T08:58:32;6.15;;;3.88;;
31978;SDS011;18502;43.574;1.276;2023-08-24T09:01:01;7.90;;;4.47;;
31978;SDS011;18502;43.574;1.276;2023-08-24T09:03:29;8.55;;;4.53;;
31978;SDS011;18502;43.574;1.276;2023-08-24T09:05:56;9.52;;;4.07;;
31978;SDS011;18502;43.574;1.276;2023-08-24T09:08:22;9.80;;;4.75;;
31978;SDS011;18502;43.574;1.276;2023-08-24T09:10:49;8.68;;;4.18;;
31978;SDS011;18502;43.574;1.276;2023-08-24T09:13:15;7.28;;;4.13;;
31978;SDS011;18502;43.574;1.276;2023-08-24T09:15:42;8.90;;;5.05;;
31978;SDS011;18502;43.574;1.276;2023-08-24T09:18:08;8.02;;;4.47;;
31978;SDS011;18502;43.574;1.276;2023-08-24T09:20:34;5.60;;;3.97;;
31978;SDS011;18502;43.574;1.276;2023-08-24T09:22:59;16.80;;;4.05;;
31978;SDS011;18502;43.574;1.276;2023-08-24T09:25:26;10.57;;;4.65;;
31978;SDS011;18502;43.574;1.276;2023-08-24T09:28:01;13.15;;;4.43;;
31978;SDS011;18502;43.574;1.276;2023-08-24T09:30:33;14.63;;;5.18;;
31978;SDS011;18502;43.574;1.276;2023-08-24T09:33:01;9.60;;;4.13;;
31978;SDS011;18502;43.574;1.276;2023-08-24T09:35:28;8.82;;;4.70;;
31978;SDS011;18502;43.574;1.276;2023-08-24T09:37:53;7.72;;;4.47;;
31978;SDS011;18502;43.574;1.276;2023-08-24T09:40:23;9.18;;;4.57;;
31978;SDS011;18502;43.574;1.276;2023-08-24T09:42:51;9.80;;;3.95;;
31978;SDS011;18502;43.574;1.276;2023-08-24T09:45:16;7.28;;;4.78;;
31978;SDS011;18502;43.574;1.276;2023-08-24T09:47:46;8.02;;;4.32;;
31978;SDS011;18502;43.574;1.276;2023-08-24T09:50:14;10.23;;;4.93;;
31978;SDS011;18502;43.574;1.276;2023-08-24T09:52:40;8.18;;;4.55;;
31978;SDS011;18502;43.574;1.276;2023-08-24T09:55:07;9.85;;;4.32;;
31978;SDS011;18502;43.574;1.276;2023-08-24T09:57:36;10.95;;;4.45;;
31978;SDS011;18502;43.574;1.276;2023-08-24T10:00:06;5.43;;;4.68;;
31978;SDS011;18502;43.574;1.276;2023-08-24T10:02:36;7.88;;;4.40;;
31978;SDS011;18502;43.574;1.276;2023-08-24T10:05:09;7.93;;;4.45;;
31978;SDS011;18502;43.574;1.276;2023-08-24T10:07:36;13.38;;;4.88;;
31978;SDS011;18502;43.574;1.276;2023-08-24T10:10:03;7.28;;;4.30;;
31978;SDS011;18502;43.574;1.276;2023-08-24T10:12:36;7.05;;;4.95;;
31978;SDS011;18502;43.574;1.276;2023-08-24T10:15:09;10.90;;;4.57;;
31978;SDS011;18502;43.574;1.276;2023-08-24T10:17:37;9.05;;;4.60;;
31978;SDS011;18502;43.574;1.276;2023-08-24T10:20:05;8.50;;;4.30;;
31978;SDS011;18502;43.574;1.276;2023-08-24T10:22:34;9.23;;;4.53;;
31978;SDS011;18502;43.574;1.276;2023-08-24T10:25:01;8.52;;;4.45;;
31978;SDS011;18502;43.574;1.276;2023-08-24T10:27:27;7.15;;;4.13;;
31978;SDS011;18502;43.574;1.276;2023-08-24T10:29:54;10.95;;;4.57;;
31978;SDS011;18502;43.574;1.276;2023-08-24T10:32:21;7.10;;;4.53;;
31978;SDS011;18502;43.574;1.276;2023-08-24T10:34:49;10.43;;;4.28;;
31978;SDS011;18502;43.574;1.276;2023-08-24T10:37:15;9.45;;;4.68;;
31978;SDS011;18502;43.574;1.276;2023-08-24T10:39:44;8.02;;;4.10;;
31978;SDS011;18502;43.574;1.276;2023-08-24T10:42:11;8.45;;;3.75;;
31978;SDS011;18502;43.574;1.276;2023-08-24T10:44:38;5.88;;;4.07;;
31978;SDS011;18502;43.574;1.276;2023-08-24T10:47:05;10.52;;;4.45;;
31978;SDS011;18502;43.574;1.276;2023-08-24T10:49:43;9.10;;;4.43;;
31978;SDS011;18502;43.574;1.276;2023-08-24T10:54:57;7.85;;;4.38;;
31978;SDS011;18502;43.574;1.276;2023-08-24T10:57:34;10.02;;;4.55;;
31978;SDS011;18502;43.574;1.276;2023-08-24T11:07:48;7.40;;;4.03;;
31978;SDS011;18502;43.574;1.276;2023-08-24T11:10:15;5.13;;;4.10;;
31978;SDS011;18502;43.574;1.276;2023-08-24T11:15:33;8.18;;;3.92;;
31978;SDS011;18502;43.574;1.276;2023-08-24T11:20:53;8.45;;;3.22;;
31978;SDS011;18502;43.574;1.276;2023-08-24T11:23:21;8.45;;;4.30;;
31978;SDS011;18502;43.574;1.276;2023-08-24T11:25:49;7.18;;;3.92;;
31978;SDS011;18502;43.574;1.276;2023-08-24T11:28:21;8.80;;;4.45;;
31978;SDS011;18502;43.574;1.276;2023-08-24T11:30:48;10.48;;;3.63;;
31978;SDS011;18502;43.574;1.276;2023-08-24T11:33:14;5.53;;;3.78;;
31978;SDS011;18502;43.574;1.276;2023-08-24T11:35:43;9.65;;;4.00;;
31978;SDS011;18502;43.574;1.276;2023-08-24T11:38:10;8.60;;;4.18;;
31978;SDS011;18502;43.574;1.276;2023-08-24T11:40:36;7.93;;;3.60;;
31978;SDS011;18502;43.574;1.276;2023-08-24T11:43:02;5.38;;;3.50;;
31978;SDS011;18502;43.574;1.276;2023-08-24T11:45:32;8.52;;;4.18;;
31978;SDS011;18502;43.574;1.276;2023-08-24T11:47:59;9.77;;;3.65;;
31978;SDS011;18502;43.574;1.276;2023-08-24T11:50:26;9.65;;;4.43;;
31978;SDS011;18502;43.574;1.276;2023-08-24T11:52:52;10.10;;;3.88;;
31978;SDS011;18502;43.574;1.276;2023-08-24T11:55:18;6.80;;;3.40;;
31978;SDS011;18502;43.574;1.276;2023-08-24T11:57:46;5.18;;;3.55;;
31978;SDS011;18502;43.574;1.276;2023-08-24T12:00:12;10.38;;;3.97;;
31978;SDS011;18502;43.574;1.276;2023-08-24T12:02:39;11.43;;;4.10;;
31978;SDS011;18502;43.574;1.276;2023-08-24T12:05:06;7.60;;;3.90;;
31978;SDS011;18502;43.574;1.276;2023-08-24T12:07:32;9.38;;;3.67;;
31978;SDS011;18502;43.574;1.276;2023-08-24T12:10:01;8.63;;;3.40;;
31978;SDS011;18502;43.574;1.276;2023-08-24T12:12:27;9.35;;;3.70;;
31978;SDS011;18502;43.574;1.276;2023-08-24T12:14:54;12.38;;;4.13;;
31978;SDS011;18502;43.574;1.276;2023-08-24T12:17:22;7.03;;;4.05;;
31978;SDS011;18502;43.574;1.276;2023-08-24T12:20:01;9.60;;;4.00;;
31978;SDS011;18502;43.574;1.276;2023-08-24T12:22:31;9.88;;;3.80;;
31978;SDS011;18502;43.574;1.276;2023-08-24T12:24:57;7.18;;;3.78;;
31978;SDS011;18502;43.574;1.276;2023-08-24T12:27:23;8.80;;;4.30;;
31978;SDS011;18502;43.574;1.276;2023-08-24T12:29:51;6.63;;;3.50;;
31978;SDS011;18502;43.574;1.276;2023-08-24T12:32:17;7.63;;;3.72;;
31978;SDS011;18502;43.574;1.276;2023-08-24T12:34:50;7.65;;;3.60;;
31978;SDS011;18502;43.574;1.276;2023-08-24T12:37:19;6.93;;;5.55;;
31978;SDS011;18502;43.574;1.276;2023-08-24T12:39:45;7.30;;;3.65;;
31978;SDS011;18502;43.574;1.276;2023-08-24T12:42:11;7.00;;;4.22;;
31978;SDS011;18502;43.574;1.276;2023-08-24T12:44:37;6.82;;;3.47;;
31978;SDS011;18502;43.574;1.276;2023-08-24T12:47:02;8.73;;;3.70;;
31978;SDS011;18502;43.574;1.276;2023-08-24T12:49:28;7.40;;;3.78;;
31978;SDS011;18502;43.574;1.276;2023-08-24T12:51:54;6.65;;;4.05;;
31978;SDS011;18502;43.574;1.276;2023-08-24T12:54:20;10.32;;;3.63;;
31978;SDS011;18502;43.574;1.276;2023-08-24T12:56:46;5.38;;;3.72;;
31978;SDS011;18502;43.574;1.276;2023-08-24T12:59:12;4.15;;;3.50;;
31978;SDS011;18502;43.574;1.276;2023-08-24T13:01:37;9.18;;;4.05;;
31978;SDS011;18502;43.574;1.276;2023-08-24T13:04:04;7.55;;;3.97;;
31978;SDS011;18502;43.574;1.276;2023-08-24T13:06:30;11.27;;;4.18;;
31978;SDS011;18502;43.574;1.276;2023-08-24T13:08:56;7.75;;;4.10;;
31978;SDS011;18502;43.574;1.276;2023-08-24T13:11:21;9.98;;;3.63;;
31978;SDS011;18502;43.574;1.276;2023-08-24T13:13:48;9.48;;;3.95;;
31978;SDS011;18502;43.574;1.276;2023-08-24T13:16:14;8.07;;;4.35;;
31978;SDS011;18502;43.574;1.276;2023-08-24T13:18:40;8.23;;;4.13;;
31978;SDS011;18502;43.574;1.276;2023-08-24T13:21:05;6.07;;;4.18;;
31978;SDS011;18502;43.574;1.276;2023-08-24T13:23:31;10.63;;;4.13;;
31978;SDS011;18502;43.574;1.276;2023-08-24T13:25:58;11.27;;;4.23;;
31978;SDS011;18502;43.574;1.276;2023-08-24T13:28:24;5.30;;;4.00;;
31978;SDS011;18502;43.574;1.276;2023-08-24T13:30:50;8.00;;;3.95;;
31978;SDS011;18502;43.574;1.276;2023-08-24T13:33:16;8.27;;;3.67;;
31978;SDS011;18502;43.574;1.276;2023-08-24T13:35:43;9.00;;;4.57;;
31978;SDS011;18502;43.574;1.276;2023-08-24T13:38:09;7.07;;;3.75;;
31978;SDS011;18502;43.574;1.276;2023-08-24T13:40:34;6.53;;;4.28;;
31978;SDS011;18502;43.574;1.276;2023-08-24T13:43:00;6.03;;;3.75;;
31978;SDS011;18502;43.574;1.276;2023-08-24T13:45:26;8.98;;;4.45;;
31978;SDS011;18502;43.574;1.276;2023-08-24T13:47:51;4.70;;;3.80;;
31978;SDS011;18502;43.574;1.276;2023-08-24T13:50:17;7.75;;;3.90;;
31978;SDS011;18502;43.574;1.276;2023-08-24T13:52:43;9.50;;;4.35;;
31978;SDS011;18502;43.574;1.276;2023-08-24T13:55:09;6.50;;;4.13;;
31978;SDS011;18502;43.574;1.276;2023-08-24T13:57:34;9.93;;;3.83;;
31978;SDS011;18502;43.574;1.276;2023-08-24T14:00:00;7.18;;;3.72;;
31978;SDS011;18502;43.574;1.276;2023-08-24T14:02:28;7.35;;;3.92;;
31978;SDS011;18502;43.574;1.276;2023-08-24T14:04:54;6.72;;;3.90;;
31978;SDS011;18502;43.574;1.276;2023-08-24T14:07:20;5.50;;;4.05;;
31978;SDS011;18502;43.574;1.276;2023-08-24T14:09:46;5.90;;;3.95;;
31978;SDS011;18502;43.574;1.276;2023-08-24T14:12:11;7.47;;;3.75;;
31978;SDS011;18502;43.574;1.276;2023-08-24T14:14:37;8.75;;;4.00;;
31978;SDS011;18502;43.574;1.276;2023-08-24T14:17:02;6.03;;;4.53;;
31978;SDS011;18502;43.574;1.276;2023-08-24T14:19:28;8.90;;;3.88;;
31978;SDS011;18502;43.574;1.276;2023-08-24T14:21:54;6.95;;;4.22;;
31978;SDS011;18502;43.574;1.276;2023-08-24T14:24:19;5.72;;;3.50;;
31978;SDS011;18502;43.574;1.276;2023-08-24T14:26:45;8.60;;;3.88;;
31978;SDS011;18502;43.574;1.276;2023-08-24T14:29:11;4.80;;;3.70;;
31978;SDS011;18502;43.574;1.276;2023-08-24T14:31:38;8.65;;;3.83;;
31978;SDS011;18502;43.574;1.276;2023-08-24T14:34:04;7.38;;;4.50;;
31978;SDS011;18502;43.574;1.276;2023-08-24T14:36:29;5.60;;;4.00;;
31978;SDS011;18502;43.574;1.276;2023-08-24T14:38:56;7.33;;;4.10;;
31978;SDS011;18502;43.574;1.276;2023-08-24T14:41:22;8.05;;;4.30;;
31978;SDS011;18502;43.574;1.276;2023-08-24T14:43:48;6.97;;;4.00;;
31978;SDS011;18502;43.574;1.276;2023-08-24T14:46:14;6.18;;;4.10;;
31978;SDS011;18502;43.574;1.276;2023-08-24T14:48:40;6.88;;;4.30;;
31978;SDS011;18502;43.574;1.276;2023-08-24T14:51:05;5.22;;;3.95;;
31978;SDS011;18502;43.574;1.276;2023-08-24T14:53:31;4.82;;;4.10;;
31978;SDS011;18502;43.574;1.276;2023-08-24T14:55:57;5.28;;;4.00;;
31978;SDS011;18502;43.574;1.276;2023-08-24T14:58:24;7.87;;;4.00;;
31978;SDS011;18502;43.574;1.276;2023-08-24T15:00:51;6.15;;;4.07;;